Time;durP1;ratioP1;P1;durP2;ratioP2;P2;SDS_P1;SDS_P2;PMS_P1;PMS_P2;Temp;Humidity;BMP_temperature;BMP_pressure;BME280_temperature;BME280_humidity;BME280_pressure;Samples;Min_cycle;Max_cycle;Signal;HPM_P1;HPM_P2
2021/08/07 00:02:12;;;;;;;8.38;7.53;;;;;;;16.04;100.00;99799.63;5052434;28;20083;-81
2021/08/07 00:04:40;;;;;;;8.25;7.35;;;;;;;16.04;100.00;99804.97;5014368;28;20540;-78
2021/08/07 00:07:06;;;;;;;10.25;8.73;;;;;;;16.05;100.00;99814.66;5032194;28;20037;-80
2021/08/07 00:09:33;;;;;;;8.93;7.85;;;;;;;16.07;100.00;99809.28;5031096;28;20465;-80
2021/08/07 00:11:59;;;;;;;11.30;8.57;;;;;;;16.22;100.00;99816.38;5031585;28;20045;-78
2021/08/07 00:14:26;;;;;;;9.43;8.43;;;;;;;16.18;100.00;99813.03;5046567;28;20041;-81
2021/08/07 00:16:53;;;;;;;9.65;8.63;;;;;;;16.20;100.00;99821.78;5014864;28;20037;-82
2021/08/07 00:19:20;;;;;;;10.73;9.15;;;;;;;16.31;100.00;99818.50;5047753;28;20041;-79
2021/08/07 00:21:48;;;;;;;11.80;9.63;;;;;;;16.17;100.00;99814.00;5016973;28;20048;-81
2021/08/07 00:24:16;;;;;;;10.57;9.10;;;;;;;16.17;100.00;99821.13;5029256;28;20135;-81
2021/08/07 00:26:42;;;;;;;9.20;8.25;;;;;;;16.17;100.00;99827.31;5029919;28;20045;-81
2021/08/07 00:29:09;;;;;;;10.07;8.85;;;;;;;16.17;100.00;99813.13;5013841;28;20090;-81
2021/08/07 00:31:35;;;;;;;10.80;8.52;;;;;;;16.13;100.00;99823.09;5031393;28;20045;-81
2021/08/07 00:34:02;;;;;;;9.40;8.02;;;;;;;16.13;100.00;99819.56;5032787;28;20045;-79
2021/08/07 00:36:29;;;;;;;9.18;8.27;;;;;;;16.14;100.00;99822.13;5032733;28;20037;-80
2021/08/07 00:38:56;;;;;;;7.78;7.05;;;;;;;16.06;100.00;99816.41;5031163;28;20529;-81
2021/08/07 00:41:22;;;;;;;8.18;7.38;;;;;;;16.01;100.00;99821.13;5030055;28;20106;-78
2021/08/07 00:43:49;;;;;;;7.85;7.05;;;;;;;15.97;100.00;99814.25;5038547;28;20071;-81
2021/08/07 00:46:16;;;;;;;8.30;6.40;;;;;;;15.92;100.00;99811.00;5031410;28;20441;-79
2021/08/07 00:48:42;;;;;;;7.60;6.90;;;;;;;15.89;100.00;99811.13;5047160;28;20106;-82
2021/08/07 00:51:10;;;;;;;8.07;6.80;;;;;;;15.84;100.00;99808.75;5015925;28;20053;-81
2021/08/07 00:53:37;;;;;;;8.70;7.25;;;;;;;15.88;100.00;99809.44;5034734;28;20497;-80
2021/08/07 00:56:04;;;;;;;6.85;6.15;;;;;;;15.85;100.00;99804.28;5031515;28;20033;-81
2021/08/07 00:58:31;;;;;;;6.95;6.25;;;;;;;15.80;100.00;99809.00;5031681;28;20029;-81
2021/08/07 01:01:02;;;;;;;6.97;6.28;;;;;;;15.83;100.00;99808.84;5012482;28;20413;-80
2021/08/07 01:03:36;;;;;;;6.57;5.97;;;;;;;15.75;100.00;99812.78;5033895;28;20040;-82
2021/08/07 01:06:06;;;;;;;;;;;;;;;15.72;100.00;99812.06;5031251;28;20041;-79
2021/08/07 01:08:38;;;;;;;7.15;6.45;;;;;;;15.78;100.00;99811.75;5046195;28;19971;-80
2021/08/07 01:11:21;;;;;;;6.40;5.72;;;;;;;15.74;100.00;99808.41;5046493;28;20033;-80
2021/08/07 01:13:58;;;;;;;7.43;6.72;;;;;;;15.85;100.00;99812.28;5034148;28;20044;-79
2021/08/07 01:16:30;;;;;;;7.00;6.13;;;;;;;15.80;100.00;99814.31;5029669;28;20052;-79
2021/08/07 01:18:57;;;;;;;7.93;7.13;;;;;;;15.76;100.00;99813.66;5032397;28;20068;-81
2021/08/07 01:21:34;;;;;;;5.97;5.38;;;;;;;15.70;100.00;99812.16;5064159;28;20040;-81
2021/08/07 01:24:25;;;;;;;8.98;6.45;;;;;;;15.71;100.00;99813.88;5014450;28;20099;-80
2021/08/07 01:26:55;;;;;;;7.13;6.18;;;;;;;15.74;100.00;99810.22;5026375;28;20041;-79
2021/08/07 01:29:23;;;;;;;7.45;5.93;;;;;;;15.78;100.00;99806.41;5048047;28;20430;-80
2021/08/07 01:31:51;;;;;;;8.07;6.70;;;;;;;15.88;100.00;99806.75;5032930;28;20740;-80
2021/08/07 01:34:19;;;;;;;7.65;6.05;;;;;;;15.90;100.00;99805.75;5031535;28;20045;-80
2021/08/07 01:36:46;;;;;;;7.05;6.35;;;;;;;15.91;100.00;99809.28;5033559;28;20590;-80
2021/08/07 01:39:13;;;;;;;8.68;6.30;;;;;;;15.91;100.00;99818.13;5031884;28;20457;-80
2021/08/07 01:41:41;;;;;;;8.05;6.95;;;;;;;16.00;100.00;99811.41;5048541;28;20040;-80
2021/08/07 01:44:07;;;;;;;8.25;6.90;;;;;;;15.92;100.00;99811.00;5029920;28;20099;-79
2021/08/07 01:46:45;;;;;;;9.10;6.90;;;;;;;15.90;100.00;99805.75;5049559;28;20044;-80
2021/08/07 01:49:16;;;;;;;8.32;6.95;;;;;;;15.83;100.00;99804.38;5044005;28;20044;-79
2021/08/07 01:51:53;;;;;;;9.85;7.57;;;;;;;16.02;100.00;99807.72;5033845;28;20497;-79
2021/08/07 01:54:26;;;;;;;9.02;6.97;;;;;;;15.92;100.00;99811.00;5028658;28;20049;-78
2021/08/07 01:56:52;;;;;;;9.10;7.18;;;;;;;15.94;100.00;99803.75;5048801;28;20055;-78
2021/08/07 01:59:20;;;;;;;8.15;7.03;;;;;;;15.99;100.00;99804.38;5048317;28;20120;-80
2021/08/07 02:01:48;;;;;;;9.73;7.40;;;;;;;16.02;100.00;99807.72;5049720;28;20091;-80
2021/08/07 02:04:18;;;;;;;8.88;7.10;;;;;;;15.96;100.00;99802.72;5031351;28;20041;-80
2021/08/07 02:06:46;;;;;;;8.95;6.75;;;;;;;15.94;100.00;99799.28;5031129;28;20402;-80
2021/08/07 02:09:16;;;;;;;6.78;5.97;;;;;;;15.86;100.00;99790.88;5012018;28;20098;-80
2021/08/07 02:11:43;;;;;;;6.53;5.50;;;;;;;15.79;100.00;99791.28;5048519;28;20045;-79
2021/08/07 02:14:10;;;;;;;7.82;7.03;;;;;;;15.76;100.00;99782.53;5029141;28;20143;-80
2021/08/07 02:16:38;;;;;;;9.65;6.93;;;;;;;15.78;100.00;99782.44;5030806;28;20045;-80
2021/08/07 02:19:05;;;;;;;7.32;6.57;;;;;;;15.79;100.00;99788.63;5024130;28;20041;-80
2021/08/07 02:21:33;;;;;;;7.20;6.13;;;;;;;15.73;100.00;99785.38;5012914;28;20139;-80
2021/08/07 02:23:59;;;;;;;8.95;7.28;;;;;;;15.71;100.00;99787.25;5048444;28;20056;-80
2021/08/07 02:26:27;;;;;;;7.40;6.05;;;;;;;15.62;100.00;99790.44;5015683;28;20044;-79
2021/08/07 02:28:54;;;;;;;6.55;5.57;;;;;;;15.59;100.00;99790.56;5031611;28;20048;-80
2021/08/07 02:31:21;;;;;;;9.75;6.45;;;;;;;15.60;100.00;99796.75;5042099;28;20044;-80
2021/08/07 02:33:49;;;;;;;6.97;6.05;;;;;;;15.57;100.00;99797.78;5030184;28;20037;-80
2021/08/07 02:36:16;;;;;;;6.70;5.47;;;;;;;15.56;100.00;99798.75;5048572;28;20045;-79
2021/08/07 02:38:44;;;;;;;7.85;6.60;;;;;;;15.64;100.00;99801.88;5031014;28;20044;-79
2021/08/07 02:41:13;;;;;;;8.15;5.90;;;;;;;15.61;100.00;99801.16;5046993;28;20049;-80
2021/08/07 02:43:40;;;;;;;7.70;6.35;;;;;;;15.68;100.00;99798.09;5013571;28;20041;-79
2021/08/07 02:46:07;;;;;;;7.03;5.90;;;;;;;15.59;100.00;99800.38;5019145;28;20057;-79
2021/08/07 02:48:34;;;;;;;7.78;5.90;;;;;;;15.56;100.00;99798.75;5032078;28;20474;-81
2021/08/07 02:51:01;;;;;;;7.22;5.78;;;;;;;15.52;100.00;99806.97;5025199;28;20802;-80
2021/08/07 02:53:29;;;;;;;6.43;5.60;;;;;;;15.50;100.00;99799.06;5015350;28;20049;-79
2021/08/07 02:55:56;;;;;;;7.28;5.65;;;;;;;15.46;100.00;99797.50;5013440;28;20128;-80
2021/08/07 02:58:23;;;;;;;8.10;5.70;;;;;;;15.43;100.00;99797.69;5041627;28;20033;-80
2021/08/07 03:00:49;;;;;;;6.75;5.90;;;;;;;15.41;100.00;99795.09;5028820;28;20490;-81
2021/08/07 03:03:17;;;;;;;7.13;5.65;;;;;;;15.40;100.00;99793.38;5046940;28;20509;-80
2021/08/07 03:05:44;;;;;;;8.07;5.82;;;;;;;15.41;100.00;99800.44;5027652;28;20057;-80
2021/08/07 03:08:11;;;;;;;7.97;6.00;;;;;;;15.45;100.00;99801.97;5012644;28;20064;-79
2021/08/07 03:10:38;;;;;;;7.30;6.40;;;;;;;15.47;100.00;99807.22;5009967;28;20041;-80
2021/08/07 03:13:05;;;;;;;7.10;5.75;;;;;;;15.46;100.00;99798.34;5026222;28;20049;-78
2021/08/07 03:15:32;;;;;;;7.05;5.72;;;;;;;15.45;100.00;99799.31;5028194;28;20037;-79
2021/08/07 03:17:59;;;;;;;7.50;6.05;;;;;;;15.56;100.00;99793.41;5029539;28;20517;-81
2021/08/07 03:20:31;;;;;;;8.23;5.93;;;;;;;15.52;100.00;99799.84;5026311;28;20040;-80
2021/08/07 03:23:04;;;;;;;7.40;5.90;;;;;;;15.46;100.00;99803.69;5046020;28;20040;-79
2021/08/07 03:25:32;;;;;;;7.53;6.53;;;;;;;15.48;100.00;99806.28;5024141;28;20509;-82
2021/08/07 03:27:59;;;;;;;6.65;5.95;;;;;;;15.48;100.00;99807.13;5047463;28;20040;-80
2021/08/07 03:30:26;;;;;;;7.75;6.80;;;;;;;15.55;100.00;99807.63;5044154;28;20536;-80
2021/08/07 03:32:52;;;;;;;8.57;6.18;;;;;;;15.44;100.00;99813.56;5028766;28;20049;-80
2021/08/07 03:35:19;;;;;;;9.02;7.07;;;;;;;15.54;100.00;99815.72;5028057;28;20043;-81
2021/08/07 03:37:46;;;;;;;8.38;6.22;;;;;;;15.45;100.00;99809.09;5046598;28;20430;-80
2021/08/07 03:40:14;;;;;;;7.00;6.30;;;;;;;15.44;100.00;99820.69;5026332;28;20494;-80
2021/08/07 03:42:41;;;;;;;9.90;6.82;;;;;;;15.48;100.00;99814.28;5031013;28;20033;-80
2021/08/07 03:45:09;;;;;;;8.57;6.72;;;;;;;15.48;100.00;99820.44;5013213;28;20041;-80
2021/08/07 03:47:48;;;;;;;9.20;7.47;;;;;;;15.53;100.00;99819.31;5030894;28;20049;-80
2021/08/07 03:50:16;;;;;;;9.45;7.93;;;;;;;15.56;100.00;99819.19;5046385;28;20033;-80
2021/08/07 03:52:43;;;;;;;10.38;7.25;;;;;;;15.57;100.00;99820.91;5047098;28;20060;-81
2021/08/07 03:55:10;;;;;;;8.25;7.18;;;;;;;15.56;100.00;99822.69;5045999;28;20039;-80
2021/08/07 03:57:53;;;;;;;9.50;7.60;;;;;;;15.48;100.00;99819.59;5042044;28;20049;-80
2021/08/07 04:00:23;;;;;;;10.68;7.38;;;;;;;15.52;100.00;99818.47;5044639;28;20505;-81
2021/08/07 04:02:50;;;;;;;13.48;7.95;;;;;;;15.48;100.00;99816.94;5029282;28;20032;-81
2021/08/07 04:05:18;;;;;;;8.50;6.72;;;;;;;15.47;100.00;99810.75;5036995;28;20068;-80
2021/08/07 04:07:45;;;;;;;11.30;7.55;;;;;;;15.45;100.00;99812.59;5027315;28;20037;-81
2021/08/07 04:10:14;;;;;;;9.30;7.00;;;;;;;15.47;100.00;99812.56;5030351;28;20135;-81
2021/08/07 04:12:41;;;;;;;9.35;7.60;;;;;;;15.42;100.00;99807.47;5031387;28;20045;-82
2021/08/07 04:15:08;;;;;;;13.23;9.15;;;;;;;15.57;100.00;99799.59;5029291;28;20037;-80
2021/08/07 04:17:36;;;;;;;9.45;7.68;;;;;;;15.47;100.00;99792.13;5014788;28;20563;-80
2021/08/07 04:20:08;;;;;;;9.23;7.65;;;;;;;15.40;100.00;99787.22;5013528;28;20056;-81
2021/08/07 04:22:35;;;;;;;10.65;8.05;;;;;;;15.48;100.00;99780.53;5030773;28;20559;-81
2021/08/07 04:25:02;;;;;;;10.43;7.53;;;;;;;15.44;100.00;99778.94;5032818;28;20044;-80
2021/08/07 04:27:29;;;;;;;9.25;7.05;;;;;;;15.42;100.00;99793.28;5034109;28;20048;-81
2021/08/07 04:29:55;;;;;;;7.82;7.03;;;;;;;15.41;100.00;99795.09;5046831;28;20029;-81
2021/08/07 04:32:23;;;;;;;8.05;6.32;;;;;;;15.42;100.00;99802.13;5051142;28;20053;-81
2021/08/07 04:34:50;;;;;;;9.27;7.30;;;;;;;15.47;100.00;99800.09;5029467;28;20032;-82
2021/08/07 04:37:17;;;;;;;8.90;6.65;;;;;;;15.43;100.00;99806.50;5032326;28;20041;-82
2021/08/07 04:39:43;;;;;;;9.88;6.68;;;;;;;15.47;100.00;99807.22;5033748;28;21929;-82
2021/08/07 04:42:10;;;;;;;7.47;6.63;;;;;;;15.53;100.00;99814.84;5044596;28;20049;-82
2021/08/07 04:44:37;;;;;;;7.85;6.72;;;;;;;15.54;100.00;99813.06;5032897;28;21979;-80
2021/08/07 04:47:04;;;;;;;6.75;6.05;;;;;;;15.55;100.00;99810.31;5019934;28;20063;-80
2021/08/07 04:49:31;;;;;;;7.63;5.90;;;;;;;15.52;100.00;99810.47;5016982;28;20065;-80
2021/08/07 04:51:58;;;;;;;8.00;7.20;;;;;;;15.64;100.00;99812.53;5016943;28;20528;-79
2021/08/07 04:54:25;;;;;;;8.68;6.75;;;;;;;15.67;100.00;99804.34;5030409;28;20045;-79
2021/08/07 04:56:52;;;;;;;8.73;6.95;;;;;;;15.86;100.00;99808.66;5050877;28;20059;-81
2021/08/07 04:59:18;;;;;;;9.75;8.00;;;;;;;15.91;100.00;99810.13;5050328;28;20033;-80
2021/08/07 05:01:45;;;;;;;9.52;7.13;;;;;;;15.83;100.00;99822.16;5050276;28;20045;-79
2021/08/07 05:04:12;;;;;;;10.57;7.80;;;;;;;15.93;100.00;99813.56;5020407;28;20048;-80
2021/08/07 05:06:39;;;;;;;8.63;7.28;;;;;;;15.91;100.00;99819.94;5050177;28;20041;-80
2021/08/07 05:09:06;;;;;;;9.68;7.57;;;;;;;15.99;100.00;99820.38;5045995;28;20457;-80
2021/08/07 05:11:33;;;;;;;10.18;7.95;;;;;;;15.97;100.00;99823.09;5049104;28;20051;-79
2021/08/07 05:13:59;;;;;;;10.77;7.95;;;;;;;16.04;100.00;99829.78;5026298;28;20107;-79
2021/08/07 05:16:26;;;;;;;9.38;8.38;;;;;;;16.12;100.00;99845.34;5013901;28;20136;-80
2021/08/07 05:18:53;;;;;;;9.25;8.10;;;;;;;16.12;100.00;99844.50;5046134;28;20126;-79
2021/08/07 05:21:20;;;;;;;8.15;6.72;;;;;;;16.09;100.00;99840.22;5048618;28;20033;-80
2021/08/07 05:23:46;;;;;;;10.15;7.82;;;;;;;16.16;100.00;99841.59;5034487;28;20045;-82
2021/08/07 05:26:13;;;;;;;10.93;8.50;;;;;;;16.21;100.00;99842.16;5045927;28;20091;-79
2021/08/07 05:28:41;;;;;;;8.93;7.20;;;;;;;16.19;100.00;99845.88;5026274;28;20040;-81
2021/08/07 05:31:07;;;;;;;7.60;6.18;;;;;;;16.13;100.00;99847.06;5031762;28;20041;-80
2021/08/07 05:33:34;;;;;;;10.60;7.70;;;;;;;16.15;100.00;99845.19;5016006;28;20069;-80
2021/08/07 05:36:01;;;;;;;8.25;6.45;;;;;;;16.16;100.00;99846.06;5048498;28;20041;-81
2021/08/07 05:38:27;;;;;;;9.63;6.72;;;;;;;16.19;100.00;99846.72;5016899;28;20045;-79
2021/08/07 05:40:55;;;;;;;8.02;6.00;;;;;;;16.26;100.00;99836.59;5030991;28;20052;-79
2021/08/07 05:43:21;;;;;;;9.45;7.35;;;;;;;16.26;100.00;99847.25;5048929;28;20103;-80
2021/08/07 05:45:48;;;;;;;8.57;6.65;;;;;;;16.31;100.00;99840.72;5047500;28;20048;-80
2021/08/07 05:48:18;;;;;;;6.70;5.60;;;;;;;16.20;100.00;99832.47;5049842;28;20041;-80
2021/08/07 05:50:45;;;;;;;8.43;6.22;;;;;;;16.21;100.00;99842.16;5047112;28;20040;-81
2021/08/07 05:53:11;;;;;;;8.02;5.85;;;;;;;16.29;100.00;99844.41;5018542;28;20037;-82
2021/08/07 05:55:38;;;;;;;8.13;6.05;;;;;;;16.38;100.00;99835.00;5045589;28;20033;-81
2021/08/07 05:58:05;;;;;;;6.82;5.82;;;;;;;16.35;100.00;99843.19;5048072;28;20457;-80
2021/08/07 06:00:31;;;;;;;6.88;5.55;;;;;;;16.65;100.00;99843.22;5027729;28;20052;-80
2021/08/07 06:02:58;;;;;;;6.53;5.55;;;;;;;16.91;100.00;99849.75;5026815;28;20065;-81
2021/08/07 06:05:25;;;;;;;6.65;5.60;;;;;;;16.98;100.00;99851.06;5048334;28;20068;-79
2021/08/07 06:07:51;;;;;;;7.53;5.15;;;;;;;16.95;100.00;99845.94;5016854;28;20047;-82
2021/08/07 06:10:19;;;;;;;5.43;4.75;;;;;;;16.95;100.00;99844.13;5030715;28;20045;-80
2021/08/07 06:12:46;;;;;;;7.72;5.90;;;;;;;17.04;100.00;99848.03;5018672;28;20044;-81
2021/08/07 06:15:12;;;;;;;8.27;5.72;;;;;;;17.08;100.00;99838.91;5026685;28;20064;-79
2021/08/07 06:17:39;;;;;;;7.80;5.63;;;;;;;17.10;100.00;99839.69;5047928;28;20041;-79
2021/08/07 06:20:08;;;;;;;6.80;5.65;;;;;;;17.24;96.95;99847.72;5020643;28;20037;-81
2021/08/07 06:22:35;;;;;;;7.95;5.82;;;;;;;17.20;98.89;99845.31;5046882;28;20482;-80
2021/08/07 06:25:03;;;;;;;8.57;5.05;;;;;;;17.53;99.15;99850.41;5013609;28;20086;-80
2021/08/07 06:27:29;;;;;;;6.00;4.68;;;;;;;18.93;90.03;99843.97;5043486;28;20099;-79
2021/08/07 06:29:56;;;;;;;6.55;5.00;;;;;;;20.47;79.05;99834.84;5048175;28;20029;-81
2021/08/07 06:32:22;;;;;;;5.97;3.83;;;;;;;21.57;72.42;99847.88;5042786;28;20434;-81
2021/08/07 06:34:49;;;;;;;3.95;3.55;;;;;;;22.89;65.40;99841.56;5029870;28;20399;-81
2021/08/07 06:37:16;;;;;;;4.97;3.50;;;;;;;23.43;63.49;99848.56;5025307;28;20071;-81
2021/08/07 06:39:43;;;;;;;4.03;3.60;;;;;;;23.25;60.75;99840.25;5039241;28;20503;-82
2021/08/07 06:42:10;;;;;;;4.25;3.28;;;;;;;23.55;63.66;99849.38;5015731;28;20099;-80
2021/08/07 06:44:37;;;;;;;5.85;3.35;;;;;;;23.49;64.35;99855.28;5024703;28;20048;-83
2021/08/07 06:47:03;;;;;;;5.22;4.10;;;;;;;23.12;62.94;99850.38;5030386;28;20414;-80
2021/08/07 06:49:30;;;;;;;4.88;4.00;;;;;;;23.21;65.83;99855.00;5028231;28;20103;-80
2021/08/07 06:51:57;;;;;;;3.72;2.92;;;;;;;23.09;65.87;99855.16;5031036;28;20049;-81
2021/08/07 06:54:23;;;;;;;3.53;3.15;;;;;;;22.94;65.73;99846.53;5029192;28;20102;-81
2021/08/07 06:56:50;;;;;;;4.63;3.33;;;;;;;22.72;66.32;99856.41;5044662;28;20154;-80
2021/08/07 06:59:17;;;;;;;5.05;3.00;;;;;;;22.67;68.11;99863.16;5029663;28;20045;-81
2021/08/07 07:01:44;;;;;;;4.43;3.30;;;;;;;22.46;68.25;99871.19;5027502;28;20515;-79
2021/08/07 07:04:11;;;;;;;4.10;3.70;;;;;;;22.47;67.95;99862.13;5029797;28;20079;-80
2021/08/07 07:06:38;;;;;;;4.63;3.88;;;;;;;22.01;69.45;99873.03;5028549;28;20037;-80
2021/08/07 07:09:04;;;;;;;4.18;3.65;;;;;;;22.12;69.30;99871.25;5027514;28;20036;-80
2021/08/07 07:11:31;;;;;;;5.30;2.85;;;;;;;22.25;70.52;99873.78;5046117;28;20047;-80
2021/08/07 07:13:58;;;;;;;4.53;3.35;;;;;;;22.32;68.66;99875.00;5026373;28;20060;-82
2021/08/07 07:16:24;;;;;;;3.50;3.00;;;;;;;22.44;66.06;99879.38;5021931;28;20049;-79
2021/08/07 07:18:51;;;;;;;3.45;2.95;;;;;;;22.54;67.13;99882.19;5044087;28;20037;-80
2021/08/07 07:21:18;;;;;;;3.25;2.95;;;;;;;22.50;68.18;99883.41;5059181;28;20088;-81
2021/08/07 07:23:44;;;;;;;5.57;2.80;;;;;;;22.53;67.50;99888.50;5023661;28;20041;-79
2021/08/07 07:26:11;;;;;;;5.93;3.65;;;;;;;22.59;66.45;99881.78;5043961;28;20379;-79
2021/08/07 07:28:37;;;;;;;3.78;2.83;;;;;;;22.77;67.69;99888.31;5026980;28;20045;-80
2021/08/07 07:31:04;;;;;;;3.50;2.53;;;;;;;22.95;67.62;99884.16;5044923;28;20037;-81
2021/08/07 07:33:31;;;;;;;3.08;2.75;;;;;;;23.07;65.83;99876.84;5030706;28;20041;-78
2021/08/07 07:35:58;;;;;;;4.45;3.15;;;;;;;22.82;64.44;99885.25;5012893;28;20040;-80
2021/08/07 07:38:25;;;;;;;4.03;3.08;;;;;;;22.90;63.47;99882.81;5047807;28;20045;-80
2021/08/07 07:40:52;;;;;;;4.82;3.10;;;;;;;22.78;65.26;99884.66;5044270;28;20652;-79
2021/08/07 07:43:20;;;;;;;10.05;7.22;;;;;;;23.05;65.27;99888.75;5048500;28;20044;-80
2021/08/07 07:45:47;;;;;;;6.43;3.42;;;;;;;23.18;63.83;99887.56;5029791;28;20037;-80
2021/08/07 07:48:14;;;;;;;4.28;3.67;;;;;;;23.27;64.38;99881.38;5047062;28;20472;-79
2021/08/07 07:50:40;;;;;;;3.17;2.67;;;;;;;23.34;63.53;99886.25;5062116;28;20100;-80
2021/08/07 07:53:07;;;;;;;3.67;2.58;;;;;;;23.49;62.74;99887.63;5046498;28;20124;-79
2021/08/07 07:55:34;;;;;;;3.47;2.67;;;;;;;23.54;63.12;99890.78;5042172;28;20075;-80
2021/08/07 07:58:01;;;;;;;14.45;8.07;;;;;;;23.69;62.52;99888.63;5040988;28;20037;-80
2021/08/07 08:00:27;;;;;;;5.85;3.80;;;;;;;23.79;60.87;99890.38;5048898;28;20088;-81
2021/08/07 08:02:54;;;;;;;13.50;8.23;;;;;;;23.87;60.49;99895.94;5049803;28;20682;-80
2021/08/07 08:05:22;;;;;;;7.88;4.55;;;;;;;24.04;60.35;99891.75;5005776;28;20418;-79
2021/08/07 08:07:48;;;;;;;6.55;3.10;;;;;;;24.19;59.45;99886.00;5061926;28;20044;-80
2021/08/07 08:10:16;;;;;;;5.15;4.03;;;;;;;24.31;60.01;99882.22;5035703;28;21661;-80
2021/08/07 08:12:44;;;;;;;5.97;3.90;;;;;;;24.25;59.91;99886.31;5046715;28;20086;-78
2021/08/07 08:15:12;;;;;;;3.25;2.80;;;;;;;24.39;59.63;99877.88;5045585;28;20063;-78
2021/08/07 08:17:39;;;;;;;7.65;5.13;;;;;;;24.01;58.75;99877.72;5029851;28;20045;-80
2021/08/07 08:20:08;;;;;;;6.03;3.13;;;;;;;23.94;58.99;99874.69;5047971;28;20049;-80
2021/08/07 08:22:35;;;;;;;4.28;2.92;;;;;;;23.93;60.39;99883.78;5031242;28;20106;-78
2021/08/07 08:25:04;;;;;;;4.00;2.60;;;;;;;23.80;58.71;99880.47;5047820;28;20041;-79
2021/08/07 08:27:30;;;;;;;3.45;2.40;;;;;;;23.51;60.32;99877.56;5048446;28;20036;-79
2021/08/07 08:29:58;;;;;;;22.73;16.33;;;;;;;23.29;60.13;99889.38;5029975;28;20069;-79
2021/08/07 08:32:24;;;;;;;8.55;5.85;;;;;;;22.85;62.43;99879.63;5045654;28;20041;-80
2021/08/07 08:34:51;;;;;;;3.47;3.00;;;;;;;22.86;62.18;99884.03;5028505;28;20103;-79
2021/08/07 08:37:18;;;;;;;17.25;11.38;;;;;;;23.01;61.44;99877.38;5026260;28;20045;-79
2021/08/07 08:39:45;;;;;;;5.55;4.50;;;;;;;22.93;60.83;99883.41;5028716;28;20037;-79
2021/08/07 08:42:11;;;;;;;4.82;3.10;;;;;;;22.86;62.58;99881.34;5058998;28;20487;-78
2021/08/07 08:44:38;;;;;;;5.13;3.50;;;;;;;22.82;61.97;99883.41;5014561;28;20049;-78
2021/08/07 08:47:08;;;;;;;4.05;2.78;;;;;;;22.74;62.37;99883.22;5047821;28;20040;-79
2021/08/07 08:49:35;;;;;;;3.38;2.50;;;;;;;22.71;63.46;99881.63;5029294;28;20494;-80
2021/08/07 08:52:02;;;;;;;4.60;2.88;;;;;;;22.76;63.04;99876.69;5015755;28;20051;-78
2021/08/07 08:54:28;;;;;;;3.97;3.15;;;;;;;22.74;62.28;99883.22;5031004;28;20049;-81
2021/08/07 08:56:55;;;;;;;3.92;2.85;;;;;;;22.85;62.63;99879.63;5030379;28;20040;-78
2021/08/07 08:59:23;;;;;;;3.78;2.53;;;;;;;22.73;61.49;99884.19;5045451;28;20081;-79
2021/08/07 09:01:50;;;;;;;4.55;2.53;;;;;;;22.77;63.30;99877.56;5048228;28;20049;-80
2021/08/07 09:04:17;;;;;;;2.60;2.40;;;;;;;22.97;61.21;99881.31;5020886;28;20095;-80
2021/08/07 09:06:44;;;;;;;3.40;2.45;;;;;;;23.27;60.97;99885.94;5031096;28;20041;-80
2021/08/07 09:09:12;;;;;;;4.47;2.92;;;;;;;23.70;60.33;99880.41;5054801;22;20041;-81
2021/08/07 09:11:48;;;;;;;3.63;2.88;;;;;;;24.01;57.11;99873.16;5030008;28;20065;-81
2021/08/07 09:14:26;;;;;;;4.82;2.97;;;;;;;24.26;56.84;99873.66;5031828;28;20037;-82
2021/08/07 09:16:59;;;;;;;2.88;2.60;;;;;;;24.47;57.64;99881.69;5021536;28;20045;-82
2021/08/07 09:19:56;;;;;;;2.75;2.42;;;;;;;24.59;54.47;99878.75;5029480;28;20505;-81
2021/08/07 09:22:26;;;;;;;2.80;2.35;;;;;;;24.31;54.44;99884.91;5043730;28;20122;-85
2021/08/07 09:24:59;;;;;;;4.32;2.83;;;;;;;24.37;56.00;99885.22;5034971;28;20033;-80
2021/08/07 09:27:41;;;;;;;2.38;2.17;;;;;;;24.39;55.66;99890.50;5047933;28;20069;-84
2021/08/07 09:30:16;;;;;;;3.22;2.25;;;;;;;24.01;55.77;99886.66;5044401;28;20070;-82
2021/08/07 09:32:47;;;;;;;2.85;2.55;;;;;;;23.63;56.31;99873.84;5042760;28;20045;-83
2021/08/07 09:35:16;;;;;;;4.20;2.38;;;;;;;23.47;58.58;99882.38;5022512;28;20082;-83
2021/08/07 09:37:43;;;;;;;3.00;2.72;;;;;;;23.35;59.73;99896.06;5018151;28;20041;-83
2021/08/07 09:40:11;;;;;;;4.45;2.80;;;;;;;23.25;59.87;99896.00;5035385;28;20029;-83
2021/08/07 09:42:52;;;;;;;3.50;2.70;;;;;;;23.15;60.10;99890.53;5030267;28;20060;-84
2021/08/07 09:45:25;;;;;;;2.83;2.60;;;;;;;23.38;59.70;99883.19;5018047;28;20481;-84
2021/08/07 09:48:01;;;;;;;4.53;2.80;;;;;;;23.73;58.83;99882.00;5037065;28;20041;-84
2021/08/07 09:50:30;;;;;;;3.30;2.53;;;;;;;23.71;58.66;99882.13;5015424;28;20465;-82
2021/08/07 09:52:57;;;;;;;3.58;2.90;;;;;;;23.87;59.34;99884.31;5010842;28;20049;-83
2021/08/07 09:55:24;;;;;;;4.05;2.78;;;;;;;23.83;58.26;99880.19;5033336;28;20643;-82
2021/08/07 09:58:10;;;;;;;5.07;2.78;;;;;;;23.96;57.55;99878.09;5031162;28;20037;-80
2021/08/07 10:00:43;;;;;;;4.30;2.80;;;;;;;23.96;58.01;99872.69;5014320;28;20469;-82
2021/08/07 10:03:18;;;;;;;3.63;2.97;;;;;;;23.82;57.64;99879.34;5018090;28;20045;-81
2021/08/07 10:05:46;;;;;;;3.08;2.33;;;;;;;23.79;58.69;99867.94;5052329;28;20493;-81
2021/08/07 10:08:14;;;;;;;4.90;2.90;;;;;;;23.71;58.97;99870.47;5053069;28;20040;-81
2021/08/07 10:10:41;;;;;;;3.67;2.58;;;;;;;23.65;58.01;99865.63;5029521;28;20044;-82
2021/08/07 10:13:09;;;;;;;3.45;2.63;;;;;;;23.86;58.86;99863.72;5034522;28;20045;-81
2021/08/07 10:15:38;;;;;;;3.55;2.80;;;;;;;24.11;57.07;99860.53;5043977;28;20413;-81
2021/08/07 10:18:06;;;;;;;4.57;2.50;;;;;;;24.40;56.09;99854.41;5050538;28;20505;-80
2021/08/07 10:20:34;;;;;;;2.65;2.38;;;;;;;24.81;54.13;99857.88;5030916;28;20041;-81
2021/08/07 10:23:01;;;;;;;3.22;2.50;;;;;;;25.08;54.29;99863.44;5025182;28;20040;-82
2021/08/07 10:25:28;;;;;;;2.83;2.15;;;;;;;25.03;51.69;99852.19;5022051;28;20513;-80
2021/08/07 10:27:57;;;;;;;5.00;2.30;;;;;;;24.66;52.98;99855.59;5052626;28;20036;-81
2021/08/07 10:30:24;;;;;;;2.60;2.40;;;;;;;24.62;54.61;99856.00;5034783;28;20409;-80
2021/08/07 10:32:56;;;;;;;3.40;2.60;;;;;;;24.29;53.53;99849.09;5052928;28;20685;-81
2021/08/07 10:35:27;;;;;;;2.63;2.22;;;;;;;24.13;54.84;99844.22;5014236;28;20053;-80
2021/08/07 10:37:56;;;;;;;2.90;2.10;;;;;;;23.91;55.76;99839.06;5033928;28;20049;-83
2021/08/07 10:40:23;;;;;;;3.45;2.40;;;;;;;23.86;56.67;99850.22;5034167;28;20048;-80
2021/08/07 10:42:51;;;;;;;3.50;2.40;;;;;;;23.81;55.61;99845.25;5035654;28;20045;-80
2021/08/07 10:45:20;;;;;;;3.33;1.98;;;;;;;24.08;56.51;99844.66;5032512;28;20045;-81
2021/08/07 10:47:48;;;;;;;2.20;1.92;;;;;;;24.41;52.95;99831.81;5033373;28;20041;-81
2021/08/07 10:50:24;;;;;;;2.97;2.08;;;;;;;24.68;53.43;99834.69;5030651;28;20037;-81
2021/08/07 10:52:55;;;;;;;3.92;2.10;;;;;;;24.73;52.53;99841.53;5054127;28;20567;-80
2021/08/07 10:55:53;;;;;;;10.27;2.97;;;;;;;24.45;53.07;99838.63;5035139;28;20045;-81
2021/08/07 10:58:45;;;;;;;3.35;2.20;;;;;;;24.89;52.43;99836.41;5043811;28;20288;-81
2021/08/07 11:01:19;;;;;;;1.85;1.75;;;;;;;24.87;51.40;99841.06;5028778;28;20128;-82
2021/08/07 11:03:48;;;;;;;2.40;1.67;;;;;;;24.96;51.76;99834.81;5036458;28;20045;-80
2021/08/07 11:06:15;;;;;;;2.20;2.00;;;;;;;25.10;51.65;99838.97;5035403;28;20409;-81
2021/08/07 11:08:41;;;;;;;2.83;1.77;;;;;;;25.23;51.18;99826.00;5036467;28;20052;-81
2021/08/07 11:11:31;;;;;;;2.20;1.88;;;;;;;25.44;50.08;99828.50;5020022;28;20048;-83
2021/08/07 11:14:26;;;;;;;3.15;2.08;;;;;;;25.49;49.53;99829.78;5015603;28;20514;-80
2021/08/07 11:17:02;;;;;;;2.15;1.98;;;;;;;25.35;49.54;99822.13;5049787;28;20063;-80
2021/08/07 11:19:50;;;;;;;3.20;1.65;;;;;;;25.28;48.53;99818.28;5049242;28;20099;-83
2021/08/07 11:22:37;;;;;;;2.53;1.70;;;;;;;25.44;48.21;99823.09;5048758;28;20142;-81
2021/08/07 11:25:23;;;;;;;1.83;1.50;;;;;;;25.68;48.78;99809.91;5046279;28;20037;-81
2021/08/07 11:30:30;;;;;;;1.85;1.50;;;;;;;25.62;47.39;99813.22;5047692;28;20037;-83
2021/08/07 11:35:31;;;;;;;6.13;2.45;;;;;;;25.98;47.78;99818.75;5049916;28;20045;-83
2021/08/07 11:38:05;;;;;;;2.60;2.05;;;;;;;26.25;48.34;99812.50;5021971;28;20046;-82
2021/08/07 11:40:39;;;;;;;3.08;2.10;;;;;;;26.51;46.21;99805.34;5045541;28;20554;-81
2021/08/07 11:43:11;;;;;;;2.45;1.90;;;;;;;26.48;46.90;99808.34;5047806;28;20073;-82